大阪空港の過去48時間の天気

大阪空港 (Osaka/Intl)

現在時刻: 2/21 11:55 JST (2/21 02:55 UTC) 以下の時間は現地時間です。

過去48時間のMETAR気象情報
時間 風向 風速(m/s) 視程 気温(℃) 湿度(%) 気圧(hPa) 天気現象
21 11:00 不定 1 10km以上 11 54 1035
21 10:00 東南東 2 10km以上 10 66 1036
21 09:00 不定 1 10km以上 8 76 1036
21 08:00 北西 4 10km以上 5 81 1037
21 07:00 不定 1 10km以上 3 93 1036
21 06:00 北西 2 10km以上 3 93 1036
21 05:00 西北西 2 10km以上 3 93 1035
20 20:00 西北西 2 10km以上 9 62 1033
20 19:00 北北西 3 10km以上 10 58 1032
20 18:25 北北西 5 10km以上 11 54 1031
20 18:00 西南西 3 10km以上 11 58 1031
20 17:00 南南西 3 10km以上 12 50 1030
20 16:00 南西 3 10km以上 12 50 1029
20 15:00 3 10km以上 13 47 1028
20 14:00 南西 2 10km以上 13 47 1028
20 13:00 不定 1 10km以上 12 50 1029
20 12:00 南南西 2 10km以上 11 50 1030
20 11:00 不定 1 10km以上 11 54 1030
20 10:00 不定 1 10km以上 9 62 1030
20 09:00 不定 1 10km以上 8 66 1031
20 08:00 北西 2 10km以上 6 76 1031
20 07:00 不定 1 10km以上 3 87 1030
20 06:00 不定 1 10km以上 3 87 1029
20 05:00 北西 1 10km以上 3 87 1029
19 20:00 西 2 10km以上 8 61 1028
19 19:00 西北西 1 10km以上 8 57 1028
19 18:00 西南西 2 10km以上 9 50 1027
19 17:00 南西 2 10km以上 9 50 1027
19 16:00 南南西 3 10km以上 10 46 1026
19 15:00 南西 4 10km以上 10 46 1026
19 14:00 南南西 4 10km以上 10 46 1026
19 13:00 南南西 4 10km以上 10 50 1026
19 12:00 不定 2 10km以上 10 46 1027
RJOO 210200Z VRB02KT 9999 FEW025 11/02 Q1035 RMK 1CU025 A3058
RJOO 210100Z 11003KT 060V240 9999 FEW025 10/04 Q1036 RMK 1CU025 A3060
RJOO 210000Z VRB01KT 9999 FEW025 08/04 Q1036 RMK 1CU025 A3061
RJOO 202300Z 32007KT 9999 FEW025 05/02 Q1037 RMK 1CU025 A3062
RJOO 202200Z VRB01KT 9999 FEW025 03/02 Q1036 RMK 1CU025 A3062
RJOO 202100Z 31004KT 9999 FEW025 SCT040 03/02 Q1036 RMK 1CU025 3CU040 A3060
RJOO 202000Z 30004KT 9999 FEW025 03/02 Q1035 RMK 1CU025 A3058
RJOO 201100Z 30004KT 280V350 9999 FEW025 09/02 Q1033 RMK 1CU025 A3052
RJOO 201000Z 33006KT 9999 FEW025 10/02 Q1032 RMK 1CU025 A3048
RJOO 200925Z 33010KT 9999 FEW025 11/02 Q1031 RMK 1CU025 A3046
RJOO 200900Z 24005KT 9999 FEW030 11/03 Q1031 RMK 1CU030 A3045
RJOO 200800Z 21005KT 180V250 9999 FEW030 SCT060 12/02 Q1030 RMK 1CU030 3SC060 A3041
RJOO 200700Z 22005KT 170V280 9999 FEW030 BKN050 12/02 Q1029 RMK 1CU030 5SC050 A3040
RJOO 200600Z 19005KT 150V230 9999 FEW030 SCT110 BKN/// 13/02 Q1028 RMK 1CU030 3AC110 A3038
RJOO 200500Z 23004KT 150V310 9999 FEW030 BKN/// 13/02 Q1028 RMK 1CU030 A3038
RJOO 200400Z VRB02KT 9999 FEW030 BKN/// 12/02 Q1029 RMK 1CU030 A3039
RJOO 200300Z 20003KT 130V260 9999 FEW035 BKN/// 11/01 Q1030 RMK 1CU035 A3042
RJOO 200200Z VRB02KT 9999 FEW025 SCT160 BKN/// 11/02 Q1030 RMK 1CU025 3AC160 A3043
RJOO 200100Z VRB02KT 9999 FEW030 BKN/// 09/02 Q1030 RMK 1CU030 A3044
RJOO 200000Z VRB02KT 9999 FEW030 BKN/// 08/02 Q1031 RMK 1CU030 A3045
RJOO 192300Z 32003KT 280V340 9999 FEW025 SCT160 BKN/// 06/02 Q1031 RMK 1CU025 3AC160 A3045
RJOO 192200Z VRB02KT 9999 FEW020 SCT160 BKN/// 03/01 Q1030 RMK 1CU020 3AC160 A3043
RJOO 192100Z VRB01KT 9999 FEW020 SCT150 BKN/// 03/01 Q1029 RMK 1CU020 4AC150 A3040
RJOO 192000Z 32002KT 9999 FEW020 SCT160 BKN/// 03/01 Q1029 RMK 1CU020 4AC160 A3039
RJOO 191100Z 28003KT 240V320 9999 FEW030 08/01 Q1028 RMK 1CU030 A3037
RJOO 191000Z 29001KT 9999 FEW025 BKN050 08/00 Q1028 RMK 1CU025 5SC050 A3036
RJOO 190900Z 24003KT 9999 FEW030 09/M01 Q1027 RMK 1CU030 A3035
RJOO 190800Z 23004KT 180V280 9999 FEW030 SCT/// 09/M01 Q1027 RMK 1CU030 A3033
RJOO 190700Z 20005KT 140V250 9999 FEW030 BKN/// 10/M01 Q1026 RMK 1CU030 A3032
RJOO 190600Z 23007KT 170V260 9999 FEW030 BKN/// 10/M01 Q1026 RMK 1CU030 A3031
RJOO 190500Z 21007KT 130V260 9999 FEW030 BKN/// 10/M01 Q1026 RMK 1CU030 A3031
RJOO 190400Z 20007KT 150V250 9999 FEW030 BKN/// 10/00 Q1026 RMK 1CU030 A3032
RJOO 190300Z VRB04KT 9999 FEW030 SCT040 BKN/// 10/M01 Q1027 RMK 1CU030 3CU040 A3034